Elmsdale, Canada
Current Conditions -  °F | °C
As of 7:00 PM on Friday 31 Oct 2014 (Local Time) from CYHZ Reporting Station
Broken Clouds Broken Clouds  
Wind Chill: 41°   Ceiling: 7000
Heat Index: 45°   Visibility: 15mi
Dew Point: 34°   Wind: 6mph
Humidity: 66%   Direction: 130°SE
Pressure: 30.07"   Gusts: NA
Location:  44.97°N, 63.52°W
Report Text: CYHZ 312200Z 13005KT 15SM SCT052 BKN070 BKN240 07/01 A3007 RMK SC4AC1CI2 SLP187
Loading
Personal Weather Stations






























Interactive Weather Map
Tropical Storm Tracking
New forecast layout! Learn more

10-Day Weather Forecast

Advertisements
Track Severe Weather on mobile